Currently 64°F in San Diego (City Heights), California, USA
64°F
78°F / 55°F
3 mph NW
0.00"
Saturday, November 18, 2017 7:04 PM PST

San Diego (City Heights), California Weather Summary
Last 36 Hours

Temperature Winds Hourly Humidity Dewpoint
Time Report Norm Report Norm Max Gusts Precip. Rpt. Norm Rpt. Norm Pressure
1Sat 07:04 PM  63.7°F  62°F  3 mph NW  1 mph  6 mph  0.00"  82%  72%  58°F  53°F  N/A
Sat 07:00 PM  63.9°F  62°F  2 mph NW  1 mph  8 mph  0.00"  82%  72%  58°F  53°F  N/A
Sat 06:00 PM  65.3°F  64°F  2 mph NW  1 mph  6 mph  0.00"  72%  68%  56°F  53°F  N/A
Sat 05:00 PM  67.2°F  66°F  3 mph W  1 mph  12 mph  0.00"  68%  62%  56°F  52°F  N/A
Sat 04:00 PM  69.6°F  69°F  4 mph W  2 mph  9 mph  0.00"  63%  56%  56°F  52°F  N/A
Sat 03:00 PM  71.4°F  71°F  3 mph W  3 mph  10 mph  0.00"  60%  50%  56°F  51°F  N/A
Sat 02:00 PM  75.1°F  72°F  5 mph NW  3 mph  11 mph  0.00"  50%  47%  55°F  50°F  N/A
2Sat 01:25 PM  78.1°F  73°F  6 mph SW  4 mph  9 mph  ----  45%  45%  54°F  50°F  N/A
Sat 01:00 PM  77.1°F  73°F  4 mph W  4 mph  7 mph  0.00"  44%  45%  53°F  49°F  N/A
Sat 12:00 PM  73.9°F  73°F  3 mph NW  3 mph  12 mph  0.00"  55%  44%  56°F  49°F  N/A
Sat 11:00 AM  72.2°F  71°F  3 mph W  2 mph  7 mph  0.00"  61%  45%  57°F  48°F  N/A
Sat 10:00 AM  68.7°F  69°F  1 mph NW  2 mph  4 mph  0.00"  64%  50%  56°F  49°F  N/A
Sat 09:00 AM  64.2°F  65°F  1 mph W  1 mph  5 mph  0.00"  72%  56%  55°F  49°F  N/A
Sat 08:00 AM  60.4°F  61°F  3 mph NW  1 mph  7 mph  0.00"  76%  63%  52°F  48°F  N/A
Sat 07:00 AM  56.5°F  57°F  3 mph E  1 mph  6 mph  0.00"  83%  67%  51°F  46°F  N/A
Sat 06:00 AM  55.9°F  57°F  3 mph N  1 mph  6 mph  0.00"  84%  68%  51°F  46°F  N/A
Sat 05:00 AM  56.0°F  57°F  calm  1 mph  5 mph  0.00"  84%  68%  51°F  46°F  N/A
3Sat 04:06 AM  55.3°F  57°F  1 mph N  1 mph  2 mph  ----  85%  68%  51°F  47°F  N/A
Sat 04:00 AM  55.6°F  57°F  calm  1 mph  4 mph  0.00"  85%  69%  51°F  47°F  N/A
Sat 03:00 AM  56.6°F  58°F  2 mph S  1 mph  5 mph  0.00"  86%  69%  52°F  47°F  N/A
Sat 02:00 AM  57.0°F  58°F  calm  1 mph  none  0.00"  87%  70%  53°F  48°F  N/A
Sat 01:00 AM  58.3°F  58°F  calm  1 mph  none  0.00"  88%  71%  55°F  49°F  N/A
Sat 12:00 AM  59.7°F  59°F  calm  calm  6 mph  0.00"  90%  72%  57°F  49°F  N/A
Fri 11:00 PM  59.7°F  59°F  calm  calm  none  0.00"  89%  72%  56°F  50°F  N/A
Fri 10:00 PM  61.5°F  60°F  calm  1 mph  none  0.00"  88%  73%  58°F  51°F  N/A
Fri 09:00 PM  62.6°F  61°F  calm  calm  none  0.00"  87%  73%  59°F  52°F  N/A
Fri 08:00 PM  63.4°F  62°F  calm  1 mph  4 mph  0.00"  86%  72%  59°F  52°F  N/A
Fri 07:00 PM  64.5°F  63°F  1 mph NW  1 mph  5 mph  0.00"  85%  70%  60°F  52°F  N/A
Fri 06:00 PM  65.7°F  64°F  1 mph W  1 mph  6 mph  0.00"  78%  66%  58°F  52°F  N/A
Fri 05:00 PM  67.4°F  66°F  1 mph W  1 mph  6 mph  0.00"  67%  61%  56°F  52°F  N/A
Fri 04:00 PM  69.1°F  69°F  4 mph SW  2 mph  7 mph  0.00"  64%  54%  56°F  51°F  N/A
Fri 03:00 PM  70.6°F  71°F  2 mph S  3 mph  8 mph  0.00"  65%  49%  58°F  50°F  N/A
Fri 02:00 PM  72.1°F  72°F  3 mph W  3 mph  8 mph  0.00"  56%  47%  55°F  50°F  N/A
Fri 01:00 PM  74.5°F  73°F  calm  4 mph  7 mph  0.00"  48%  44%  53°F  49°F  N/A
Fri 12:00 PM  72.9°F  73°F  calm  3 mph  6 mph  0.00"  49%  43%  52°F  48°F  N/A
Fri 11:00 AM  71.6°F  72°F  calm  2 mph  8 mph  0.00"  52%  44%  52°F  48°F  N/A
Fri 10:00 AM  68.0°F  69°F  2 mph W  2 mph  8 mph  0.00"  63%  48%  55°F  48°F  N/A
Fri 09:00 AM  65.9°F  66°F  4 mph W  1 mph  9 mph  0.00"  72%  55%  56°F  48°F  N/A
Fri 08:00 AM  65.4°F  61°F  4 mph W  1 mph  8 mph  0.00"  76%  61%  58°F  47°F  N/A

  1. Current weather data. No green row appears if the current weather data is also the high or low for the current day.
  2. High temperature for the current day.
  3. Low temperature for the current day.

The San Diego (City Height), California weather pages are a service of WeatherCurrents. City Heights is a San Diego community, located east of Balboa Park, near Interstate 15
Copyright ©Sat Nov 18 19:04:23 PST 2017  WeatherCurrents. All rights reserved. - Submit questions and comments - Privacy Policy

This page automatically refreshes every 10 minutes.